Airfield :







YOU CAN JOIN US ON...

 
LOGIN :

Register | Disclaimer

   EN    FR    IT 

 









Legend :    VFR   Marginal VFR   IFR   Intensive IFR   Very Intensive IFR
Visi :
Ceiling :
>= 8 km
>= 3000ft
5 to 8 km
1000 to 3000 ft
1500m to 5 km
500 to 1000 ft
800 to 1500m
200 to 500 ft
< 800m
< 200 ft
Symbols :   Thunderstorms  Fog  Heavy snow  Heavy precipitations  Wind > 20 kt






- Airport Elevation : 352 ft


KAUG - Augusta State

CURRENT METAR :
  • 250153Z AUTO 19003KT 10SM CLR 14/08 A3043 RMK AO2 RAE0059 SLP305 P0000 T01440083

EXPIRED METARs :
  • 250053Z AUTO 18003KT 9SM -RA CLR 17/07 A3040 RMK AO2 RAB40 SLP294 P0000 T01670067
  • 242353Z AUTO 17006KT 10SM CLR 18/07 A3039 RMK AO2 SLP292 T01830072 10239 20183 55006

TAF KAUG
Valid from the 25 at 00:00 until the 26 at 00:00 UTC


242333Z 2500/2524 17005KT P6SM SKC
FM251300 15007KT P6SM BKN015
KZBW FIR / North America



MET'MAP, your aeronautical weather chart ! - Copyright ORBIFLY December 2007 - Disclaimer

ORBIFLY MET'MAP TEAM :

Programming & Development : Alexandra Zaïnal
Concept & original design : Baudouin d'Aumeries
Assistance for programming : Marc-Olivier Méhu
Technical & hardware support : Manuel Goepfert

Contact : metmap@orbifly.com




SOURCES & CREDITS :

   NOAA